• Join FlightAware (Why Join?)
  • Login
  • US Flag 
04:25AM EDT


 

Airport Tracker/Info


-or-


 

Live Flight TrackerFlight Track Log ✈ SKW6345 ✈ 12-Aug-2013 ✈ KBZN - KSFO

Flight Track Log - Related Links

Times and Time Zones

All times are in EDT time to prevent confusion due to time zone crossing. See the SKW6345 flight status page for this flight to view local times or setup timezone preferences in your user account.

Time Position Orientation Groundspeed Altitude Reporting Facility
EDT Latitude Longitude Course Direction KTS MPH feet Rate Location/Type
03:12PM 45.3717 -111.8283 230° Southwest  Level Estimated
03:13PM 45.3036 -111.9401 229° Southwest  Level Estimated
03:14PM 45.2305 -112.0598 229° Southwest  Level Estimated
03:14PM 45.7381 -111.4008 243° Southwest 251 289 9,300  Level Salt Lake Center
03:15PM 45.1572 -112.1792 229° Southwest  Level Estimated
03:15PM 45.7319 -111.5131 266° West 275 316 11,300  Level Salt Lake Center
03:16PM 45.0838 -112.2983 229° Southwest  Level Estimated
03:16PM 45.7456 -111.6303 279° West 291 335 13,100  Level Salt Lake Center
03:17PM 45.0102 -112.4171 229° Southwest  Level Estimated
03:17PM 45.7650 -111.7464 284° West 299 344 14,800  Level Salt Lake Center
03:18PM 44.9366 -112.5355 229° Southwest  Level Estimated
03:18PM 45.7994 -111.8886 289° West 313 360 17,000  Level Salt Lake Center
03:19PM 45.8253 -112.0094 287° West 317 365 18,200 1,200 Climbing Salt Lake Center
03:20PM 45.8531 -112.1350 288° West 329 379 19,500 1,020 Climbing Salt Lake Center
03:21PM 45.8156 -112.2544 246° West 341 392 20,400 960 Climbing Salt Lake Center
03:22PM 45.7592 -112.3661 234° Southwest 346 398 21,500 960 Climbing Salt Lake Center
03:23PM 45.7006 -112.4772 233° Southwest 350 403 22,500 960 Climbing Salt Lake Center
03:24PM 45.6317 -112.6103 234° Southwest 348 400 23,500 720 Climbing Salt Lake Center
03:25PM 45.5711 -112.7242 233° Southwest 357 411 24,100 720 Climbing Salt Lake Center
03:26PM 45.5097 -112.8389 233° Southwest 364 419 25,000 900 Climbing Salt Lake Center
03:27PM 45.4475 -112.9539 232° Southwest 367 422 26,000 960 Climbing Salt Lake Center
03:28PM 45.3867 -113.0672 233° Southwest 363 418 27,000 960 Climbing Salt Lake Center
03:29PM 45.3225 -113.1897 233° Southwest 361 415 28,000 720 Climbing Salt Lake Center
03:30PM 45.2589 -113.3211 236° Southwest 364 419 28,500 480 Climbing Salt Lake Center
03:31PM 45.2056 -113.4400 238° Southwest 374 430 29,000 480 Climbing Salt Lake Center
03:32PM 45.1406 -113.5778 236° Southwest 376 433 29,600 480 Climbing Salt Lake Center
03:34PM 45.0775 -113.6894 231° Southwest 378 435 30,100 480 Climbing Salt Lake Center
03:35PM 45.0067 -113.8208 233° Southwest 378 435 30,700 480 Climbing Salt Lake Center
03:36PM 44.9436 -113.9350 232° Southwest 381 438 31,100 480 Climbing Salt Lake Center
03:37PM 44.8975 -114.0925 248° West 387 445 31,700 420 Climbing Salt Lake Center
03:38PM 44.8717 -114.2336 256° West 388 447 32,000 120 Climbing Salt Lake Center
03:39PM 44.8486 -114.4044 259° West 394 453 32,000  Level Salt Lake Center
03:40PM 44.8178 -114.5536 254° West 408 470 32,000  Level Salt Lake Center
03:41PM 44.7500 -114.6758 232° Southwest 416 479 32,000  Level Salt Lake Center
03:42PM 44.6622 -114.8094 227° Southwest 415 478 32,000  Level Salt Lake Center
03:43PM 44.5878 -114.9264 228° Southwest 419 482 32,000  Level Salt Lake Center
03:44PM 44.4994 -115.0631 228° Southwest 422 486 32,000  Level Salt Lake Center
03:45PM 44.4247 -115.1800 228° Southwest 420 483 32,000  Level Salt Lake Center
03:46PM 44.3356 -115.3164 228° Southwest 423 487 32,000  Level Salt Lake Center
03:47PM 44.2589 -115.4333 228° Southwest 424 488 32,000  Level Salt Lake Center
03:48PM 44.1672 -115.5708 227° Southwest 430 495 32,000  Level Salt Lake Center
03:49PM 44.0906 -115.6867 227° Southwest 422 486 32,000  Level Salt Lake Center
03:50PM 44.0133 -115.8044 228° Southwest 428 493 32,000  Level Salt Lake Center
03:51PM 43.9231 -115.9394 227° Southwest 425 489 32,000  Level Salt Lake Center
03:52PM 43.8461 -116.0553 227° Southwest 425 489 32,000  Level Salt Lake Center
03:53PM 43.7567 -116.1906 228° Southwest 425 489 32,000  Level Salt Lake Center
03:54PM 43.6786 -116.3044 227° Southwest 426 490 32,000  Level Salt Lake Center
03:55PM 43.5892 -116.4369 227° Southwest 422 486 32,000  Level Salt Lake Center
03:56PM 43.5122 -116.5500 227° Southwest 422 486 32,000  Level Salt Lake Center
03:57PM 43.4217 -116.6803 226° Southwest 422 486 32,000  Level Salt Lake Center
03:58PM 43.3456 -116.7936 227° Southwest 422 486 32,000  Level Salt Lake Center
03:59PM 43.2550 -116.9236 226° Southwest 423 487 32,000  Level Salt Lake Center
04:00PM 43.1783 -117.0353 227° Southwest 421 484 32,000  Level Salt Lake Center
04:01PM 43.1014 -117.1469 227° Southwest 423 487 32,000  Level Salt Lake Center
04:02PM 43.0111 -117.2761 226° Southwest 421 484 32,000  Level Salt Lake Center
04:03PM 42.9333 -117.3853 226° Southwest 420 483 32,000  Level Salt Lake Center
04:05PM 42.8433 -117.5142 226° Southwest 420 483 32,000  Level Salt Lake Center
04:06PM 42.7661 -117.6225 226° Southwest 417 480 32,000  Level Salt Lake Center
04:07PM 42.6753 -117.7508 226° Southwest 420 483 32,000  Level Salt Lake Center
04:08PM 42.5972 -117.8561 225° Southwest 415 478 32,000  Level Salt Lake Center
04:09PM 42.4819 -117.9342 207° Southwest 417 480 32,000  Level Salt Lake Center
04:10PM 42.3819 -117.9961 205° Southwest 413 475 32,000  Level Salt Lake Center
04:11PM 42.2636 -118.0683 204° Southwest 417 480 32,000  Level Salt Lake Center
04:12PM 42.1547 -118.1358 205° Southwest 414 476 32,000  Level Salt Lake Center
04:13PM 42.0533 -118.1972 204° Southwest 417 480 32,000  Level Salt Lake Center
04:14PM 41.9353 -118.2689 204° Southwest 416 479 32,000  Level Salt Lake Center
04:15PM 41.8336 -118.3286 204° Southwest 416 479 32,000  Level Salt Lake Center
04:16PM 41.7328 -118.3897 204° Southwest 415 478 32,000  Level Salt Lake Center
04:17PM 41.6139 -118.4600 204° Southwest 417 480 32,000  Level Salt Lake Center
04:18PM 41.5133 -118.5197 204° Southwest 415 478 32,000  Level Salt Lake Center
04:19PM 41.3953 -118.5892 204° Southwest 416 479 32,000  Level Salt Lake Center
04:20PM 41.2942 -118.6494 204° Southwest 415 478 32,000  Level Salt Lake Center
04:21PM 41.1883 -118.7464 215° Southwest 416 479 32,000  Level Salt Lake Center
04:22PM 41.1119 -118.8556 227° Southwest 420 483 32,000  Level Salt Lake Center
04:23PM 41.0228 -118.9811 227° Southwest 420 483 32,000  Level Salt Lake Center
04:24PM 40.9472 -119.0872 227° Southwest 417 480 32,000  Level Salt Lake Center
04:25PM 40.8569 -119.2119 226° Southwest 420 483 32,000  Level Salt Lake Center
04:26PM 40.7806 -119.3197 227° Southwest 421 484 32,000  Level Salt Lake Center
04:27PM 40.6997 -119.4300 226° Southwest 419 482 32,000  Level Salt Lake Center
04:28PM 40.6194 -119.5411 226° Southwest 420 483 32,000  Level Salt Lake Center
04:29PM 40.5228 -119.6750 226° Southwest 421 484 32,000  Level Salt Lake Center
04:30PM 40.4431 -119.7853 226° Southwest 418 481 32,000  Level Salt Lake Center
04:31PM 40.3611 -119.8958 226° Southwest 422 486 32,000  Level Salt Lake Center
04:32PM 40.2811 -120.0064 227° Southwest 421 484 32,000  Level Salt Lake Center
04:33PM 40.1994 -120.1158 226° Southwest 421 484 32,000  Level Salt Lake Center
04:35PM 40.0883 -120.2694 227° Southwest 422 486 32,000  Level Oakland Center
04:36PM 40.0058 -120.3797 226° Southwest 420 483 32,000  Level Oakland Center
04:37PM 39.9247 -120.4897 226° Southwest 420 483 32,000  Level Oakland Center
04:38PM 39.8439 -120.5986 226° Southwest 421 484 32,000  Level Oakland Center
04:39PM 39.7622 -120.7072 226° Southwest 422 486 32,000  Level Oakland Center
04:40PM 39.6797 -120.8144 225° Southwest 420 483 32,000  Level Oakland Center
04:41PM 39.5819 -120.9442 226° Southwest 418 481 32,000  Level Oakland Center
04:42PM 39.4997 -121.0531 226° Southwest 422 486 32,000  Level Oakland Center
04:43PM 39.4181 -121.1619 226° Southwest 423 487 32,000  Level Oakland Center
04:44PM 39.3344 -121.2697 225° Southwest 425 489 32,000  Level Oakland Center
04:45PM 39.2536 -121.3764 226° Southwest 420 483 32,000  Level Oakland Center
04:46PM 39.1711 -121.4842 225° Southwest 422 486 32,000  Level Oakland Center
04:47PM 39.0881 -121.5919 225° Southwest 425 489 32,000  Level Oakland Center
04:48PM 39.0042 -121.6992 225° Southwest 427 491 32,000  Level Oakland Center
04:49PM 38.9053 -121.8267 225° Southwest 424 488 32,000  Level Oakland Center
04:50PM 38.8217 -121.9292 224° Southwest 419 482 32,000  Level Oakland Center
04:51PM 38.7222 -122.0097 212° Southwest 423 487 32,000 -1,320 Level Oakland Center
04:52PM 38.6283 -122.0858 212° Southwest 439 505 29,400 -3,060 Descending Oakland Center
04:53PM 38.5056 -122.1867 213° Southwest 438 504 25,800 -3,060 Descending Oakland Center
04:54PM 38.4019 -122.2706 212° Southwest 441 507 23,200 -2,400 Descending Oakland Center
04:55PM 38.3022 -122.3517 213° Southwest 429 494 21,000 -1,320 Descending Oakland Center
04:56PM 38.2064 -122.4281 212° Southwest 409 471 20,500 -1,860 Descending Oakland Center
04:57PM 38.1131 -122.5036 213° Southwest 401 461 17,200 -2,700 Descending Oakland Center
04:58PM 38.0258 -122.5731 212° Southwest 376 433 15,000 -2,460 Descending Oakland Center
04:59PM 37.9386 -122.6422 212° Southwest 325 374 12,200 -1,980 Descending Oakland Center
05:00PM 37.8603 -122.6292 173° South 317 365 11,000 -600 Descending Oakland Center
05:01PM 37.7833 -122.5500 141° Southeast 321 369 11,100  Climbing Northern Cal TRACON
05:02PM 37.7167 -122.4833 142° Southeast 324 373 11,000  Descending Northern Cal TRACON
05:03PM 37.6667 -122.4167 133° Southeast 257 296 11,100 -60 Climbing Northern Cal TRACON
05:04PM 37.6000 -122.3667 149° Southeast 248 285 10,900 -660 Descending Northern Cal TRACON
05:05PM 37.5500 -122.3167 142° Southeast 241 277 9,800 -1,320 Descending Northern Cal TRACON
05:07PM 37.4667 -122.2167 136° Southeast 242 278 7,200 -1,200 Descending Northern Cal TRACON
05:08PM 37.4333 -122.1333 117° Southeast 238 274 6,200 -900 Descending Northern Cal TRACON
05:09PM 37.4667 -122.0833 50° Northeast 225 259 5,400 -780 Descending Northern Cal TRACON
05:10PM 37.5167 -122.0833 360° North 210 242 4,700 -600 Descending Northern Cal TRACON
05:11PM 37.5333 -122.1333 293° West 189 217 4,200 -1,020 Descending Northern Cal TRACON
05:12PM 37.5500 -122.2000 288° West 188 216 2,700 -1,200 Descending Northern Cal TRACON
05:13PM 37.5667 -122.2667 288° West 175 201 1,700 -780 Descending Northern Cal TRACON
05:14PM 37.6000 -122.3000 322° Northwest 141 162 1,100 -720 Descending Northern Cal TRACON
05:15PM 37.6167 -122.3500 293° West 129 148 300 -840 Descending Northern Cal TRACON